createdAt,value
2018-05-31T00:01:07.659Z,5.80
2018-05-31T00:03:36.376Z,6.18
2018-05-31T00:06:04.229Z,5.40
2018-05-31T00:08:32.227Z,5.22
2018-05-31T00:11:00.143Z,4.80
2018-05-31T00:13:28.798Z,5.35
2018-05-31T00:15:56.801Z,4.95
2018-05-31T00:18:24.787Z,5.37
2018-05-31T00:20:52.638Z,5.00
2018-05-31T00:23:20.613Z,5.45
2018-05-31T00:25:48.468Z,6.03
2018-05-31T00:28:16.429Z,5.70
2018-05-31T00:30:45.118Z,5.20
2018-05-31T00:33:12.950Z,5.45
2018-05-31T00:35:40.867Z,4.95
2018-05-31T00:38:08.794Z,5.50
2018-05-31T00:40:36.639Z,5.70
2018-05-31T00:43:04.589Z,5.05
2018-05-31T00:45:32.361Z,5.00
2018-05-31T00:48:00.166Z,5.30
2018-05-31T00:50:28.905Z,5.18
2018-05-31T00:52:56.871Z,5.15
2018-05-31T00:55:24.800Z,4.80
2018-05-31T00:57:52.773Z,5.20
2018-05-31T01:00:20.773Z,5.60
2018-05-31T01:02:48.589Z,5.10
2018-05-31T01:05:17.277Z,4.80
2018-05-31T01:07:45.982Z,4.78
2018-05-31T01:10:13.851Z,4.95
2018-05-31T01:12:41.840Z,5.18
2018-05-31T01:15:09.666Z,5.07
2018-05-31T01:17:37.699Z,5.00
2018-05-31T01:20:05.638Z,4.55
2018-05-31T01:22:33.458Z,4.78
2018-05-31T01:25:01.998Z,5.47
2018-05-31T01:27:29.914Z,4.93
2018-05-31T01:29:58.162Z,5.07
2018-05-31T01:32:25.964Z,4.97
2018-05-31T01:34:53.918Z,5.12
2018-05-31T01:37:22.617Z,4.43
2018-05-31T01:39:50.418Z,4.87
2018-05-31T01:42:18.422Z,4.57
2018-05-31T01:44:47.109Z,4.65
2018-05-31T01:47:15.754Z,5.05
2018-05-31T01:49:43.777Z,4.80
2018-05-31T01:52:11.718Z,5.45
2018-05-31T01:54:40.223Z,5.05
2018-05-31T01:57:08.026Z,5.07
2018-05-31T01:59:35.922Z,5.12
2018-05-31T02:02:03.707Z,4.90
2018-05-31T02:04:31.552Z,5.30
2018-05-31T02:06:59.369Z,4.85
2018-05-31T02:09:27.323Z,4.82
2018-05-31T02:11:55.187Z,4.78
2018-05-31T02:14:23.006Z,4.85
2018-05-31T02:16:51.030Z,4.80
2018-05-31T02:19:18.989Z,4.43
2018-05-31T02:21:46.811Z,5.07
2018-05-31T02:24:15.508Z,4.50
2018-05-31T02:26:44.239Z,4.50
2018-05-31T02:29:12.235Z,4.62
2018-05-31T02:31:40.002Z,4.65
2018-05-31T02:34:07.860Z,4.95
2018-05-31T02:36:35.747Z,4.53
2018-05-31T02:39:04.404Z,4.45
2018-05-31T02:41:32.241Z,4.70
2018-05-31T02:44:00.193Z,4.72
2018-05-31T02:46:28.062Z,4.28
2018-05-31T02:48:55.860Z,4.72
2018-05-31T02:51:23.828Z,4.90
2018-05-31T02:53:51.633Z,5.15
2018-05-31T02:56:20.319Z,4.50
2018-05-31T02:58:49.073Z,4.18
2018-05-31T03:01:16.919Z,4.53
2018-05-31T03:03:44.761Z,4.50
2018-05-31T03:06:12.641Z,4.85
2018-05-31T03:08:40.550Z,4.78
2018-05-31T03:11:08.361Z,4.47
2018-05-31T03:13:36.262Z,4.65
2018-05-31T03:16:04.226Z,4.97
2018-05-31T03:18:32.251Z,4.45
2018-05-31T03:21:00.066Z,4.75
2018-05-31T03:23:27.861Z,4.40
2018-05-31T03:25:56.417Z,4.05
2018-05-31T03:28:24.326Z,4.18
2018-05-31T03:30:52.245Z,4.32
2018-05-31T03:33:20.078Z,4.70
2018-05-31T03:35:48.059Z,4.87
2018-05-31T03:38:15.906Z,4.47
2018-05-31T03:40:43.674Z,4.55
2018-05-31T03:43:11.676Z,4.20
2018-05-31T03:45:39.415Z,4.40
2018-05-31T03:48:07.346Z,4.50
2018-05-31T03:50:35.075Z,4.03
2018-05-31T03:53:02.920Z,4.37
2018-05-31T03:55:30.748Z,4.60
2018-05-31T03:57:58.587Z,4.30
2018-05-31T04:00:27.362Z,4.55
2018-05-31T04:02:56.078Z,4.28
2018-05-31T04:05:24.034Z,4.40
2018-05-31T04:07:52.554Z,4.10
2018-05-31T04:10:20.356Z,4.45
2018-05-31T04:12:49.027Z,4.30
2018-05-31T04:15:16.782Z,4.35
2018-05-31T04:17:44.760Z,4.20
2018-05-31T04:20:13.614Z,4.87
2018-05-31T04:22:41.471Z,4.40
2018-05-31T04:25:09.300Z,4.37
2018-05-31T04:27:37.839Z,4.07
2018-05-31T04:30:05.668Z,3.90
2018-05-31T04:32:33.499Z,4.20
2018-05-31T04:35:02.276Z,4.20
2018-05-31T04:37:30.319Z,4.03
2018-05-31T04:39:58.301Z,4.05
2018-05-31T04:42:26.160Z,4.40
2018-05-31T04:44:54.046Z,4.05
2018-05-31T04:47:21.918Z,4.35
2018-05-31T04:49:50.447Z,3.53
2018-05-31T04:52:18.442Z,3.87
2018-05-31T04:54:46.409Z,4.30
2018-05-31T04:57:14.187Z,4.00
2018-05-31T04:59:42.209Z,3.92
2018-05-31T05:02:10.050Z,4.35
2018-05-31T05:04:38.031Z,4.03
2018-05-31T05:07:06.023Z,3.95
2018-05-31T05:09:33.868Z,4.20
2018-05-31T05:12:01.749Z,4.20
2018-05-31T05:14:29.614Z,4.15
2018-05-31T05:16:57.484Z,3.70
2018-05-31T05:19:25.425Z,3.80
2018-05-31T05:21:53.185Z,4.12
2018-05-31T05:24:21.283Z,3.58
2018-05-31T05:26:49.052Z,4.00
2018-05-31T05:29:16.883Z,3.80
2018-05-31T05:31:44.777Z,4.10
2018-05-31T05:34:12.641Z,3.87
2018-05-31T05:36:40.483Z,3.55
2018-05-31T05:39:08.319Z,3.55
2018-05-31T05:41:36.986Z,4.53
2018-05-31T05:44:05.661Z,3.72
2018-05-31T05:46:33.764Z,4.00
2018-05-31T05:49:02.364Z,5.85
2018-05-31T05:51:30.261Z,5.45
2018-05-31T05:53:58.079Z,6.80
2018-05-31T05:56:26.844Z,5.68
2018-05-31T05:58:54.549Z,7.65
2018-05-31T06:01:22.288Z,9.07
2018-05-31T06:03:50.984Z,8.70
2018-05-31T06:06:18.917Z,9.48
2018-05-31T06:08:46.730Z,10.13
2018-05-31T06:11:14.593Z,10.65
2018-05-31T06:13:42.365Z,8.55
2018-05-31T06:16:10.352Z,9.52
2018-05-31T06:18:38.200Z,7.90
2018-05-31T06:21:06.098Z,11.10
2018-05-31T06:23:33.890Z,11.35
2018-05-31T06:26:02.629Z,12.85
2018-05-31T06:28:30.460Z,11.75
2018-05-31T06:30:58.296Z,10.48
2018-05-31T06:33:26.892Z,10.48
2018-05-31T06:35:54.695Z,14.97
2018-05-31T06:38:22.677Z,12.63
2018-05-31T06:40:52.283Z,12.13
2018-05-31T06:43:20.121Z,11.53
2018-05-31T06:45:47.959Z,10.68
2018-05-31T06:48:15.875Z,13.77
2018-05-31T06:50:43.745Z,12.60
2018-05-31T06:53:11.599Z,9.38
2018-05-31T06:55:39.524Z,9.20
2018-05-31T06:58:08.033Z,10.77
2018-05-31T07:00:35.882Z,10.30
2018-05-31T07:03:03.739Z,9.32
2018-05-31T07:05:31.505Z,10.18
2018-05-31T07:07:59.302Z,10.32
2018-05-31T07:10:27.263Z,10.88
2018-05-31T07:12:55.137Z,16.95
2018-05-31T07:15:23.079Z,13.90
2018-05-31T07:17:51.028Z,10.27
2018-05-31T07:20:19.827Z,9.27
2018-05-31T07:22:47.758Z,11.20
2018-05-31T07:25:15.750Z,13.30
2018-05-31T07:27:44.402Z,11.70
2018-05-31T07:30:12.181Z,12.15
2018-05-31T07:32:40.760Z,10.63
2018-05-31T07:35:08.553Z,11.75
2018-05-31T07:37:36.345Z,14.10
2018-05-31T07:40:04.280Z,12.05
2018-05-31T07:42:32.212Z,11.57
2018-05-31T07:45:00.139Z,13.65
2018-05-31T07:47:27.901Z,10.18
2018-05-31T07:49:55.761Z,11.38
2018-05-31T07:52:23.544Z,12.60
2018-05-31T07:54:51.395Z,12.40
2018-05-31T07:57:19.301Z,11.55
2018-05-31T07:59:47.052Z,13.75
2018-05-31T08:02:14.964Z,11.48
2018-05-31T08:04:42.831Z,13.85
2018-05-31T08:07:10.691Z,10.43
2018-05-31T08:09:43.601Z,11.10
2018-05-31T08:12:11.440Z,12.35
2018-05-31T08:14:39.317Z,11.85
2018-05-31T08:17:07.111Z,14.23
2018-05-31T08:19:34.983Z,12.27
2018-05-31T08:22:02.863Z,16.17
2018-05-31T08:24:30.720Z,15.20
2018-05-31T08:26:58.637Z,15.55
2018-05-31T08:29:26.557Z,12.77
2018-05-31T08:31:54.327Z,15.20
2018-05-31T08:34:22.204Z,16.62
2018-05-31T08:36:50.814Z,13.35
2018-05-31T08:39:18.757Z,11.82
2018-05-31T08:41:47.412Z,12.02
2018-05-31T08:44:15.228Z,14.02
2018-05-31T08:46:44.199Z,11.30
2018-05-31T08:49:12.832Z,12.23
2018-05-31T08:51:40.634Z,18.10
2018-05-31T08:54:08.474Z,10.85
2018-05-31T08:56:36.242Z,13.55
2018-05-31T08:59:04.162Z,12.25
2018-05-31T09:01:32.043Z,11.45
2018-05-31T09:03:59.934Z,11.35
2018-05-31T09:06:27.791Z,15.30
2018-05-31T09:08:55.565Z,13.75
2018-05-31T09:11:23.373Z,13.50
2018-05-31T09:13:51.223Z,11.65
2018-05-31T09:16:19.836Z,18.02
2018-05-31T09:18:47.610Z,12.63
2018-05-31T09:21:15.418Z,13.82
2018-05-31T09:23:43.226Z,12.57
2018-05-31T09:26:11.180Z,14.73
2018-05-31T09:28:39.226Z,15.02
2018-05-31T09:31:07.152Z,16.37
2018-05-31T09:33:34.998Z,14.15
2018-05-31T09:36:02.909Z,17.08
2018-05-31T09:38:30.664Z,11.80
2018-05-31T09:40:58.697Z,12.40
2018-05-31T09:43:26.573Z,14.63
2018-05-31T09:45:54.372Z,13.98
2018-05-31T09:48:22.235Z,13.98
2018-05-31T09:50:50.085Z,13.20
2018-05-31T09:53:18.130Z,13.07
2018-05-31T09:55:45.991Z,15.02
2018-05-31T09:58:13.900Z,12.88
2018-05-31T10:00:46.950Z,15.93
2018-05-31T10:03:14.751Z,15.18
2018-05-31T10:05:42.623Z,13.82
2018-05-31T10:08:10.832Z,14.00
2018-05-31T10:10:38.675Z,12.63
2018-05-31T10:13:07.252Z,13.75
2018-05-31T10:15:35.895Z,13.70
2018-05-31T10:18:03.735Z,13.23
2018-05-31T10:20:31.675Z,12.45
2018-05-31T10:23:00.384Z,12.30
2018-05-31T10:25:28.330Z,12.43
2018-05-31T10:27:57.194Z,12.93
2018-05-31T10:30:25.059Z,12.45
2018-05-31T10:32:52.942Z,12.63
2018-05-31T10:35:21.732Z,11.20
2018-05-31T10:37:50.368Z,10.50
2018-05-31T10:40:18.205Z,11.23
2018-05-31T10:42:45.995Z,11.25
2018-05-31T10:45:13.778Z,11.55
2018-05-31T10:47:41.715Z,11.38
2018-05-31T10:50:09.721Z,11.27
2018-05-31T10:52:37.560Z,11.50
2018-05-31T10:55:05.417Z,10.85
2018-05-31T10:57:33.624Z,11.50
2018-05-31T11:00:01.520Z,10.93
2018-05-31T11:02:29.412Z,10.88
2018-05-31T11:04:57.413Z,11.77
2018-05-31T11:07:25.424Z,10.85
2018-05-31T11:09:53.260Z,10.27
2018-05-31T11:12:21.074Z,9.85
2018-05-31T11:14:48.914Z,9.80
2018-05-31T11:17:16.782Z,10.23
2018-05-31T11:19:44.797Z,10.45
2018-05-31T11:22:12.572Z,10.20
2018-05-31T11:24:40.368Z,10.77
2018-05-31T11:27:09.010Z,10.70
2018-05-31T11:29:36.761Z,11.30
2018-05-31T11:32:04.767Z,10.20
2018-05-31T11:34:33.343Z,9.95
2018-05-31T11:37:01.239Z,10.15
2018-05-31T11:39:29.188Z,10.48
2018-05-31T11:41:57.722Z,10.70
2018-05-31T11:44:25.545Z,10.82
2018-05-31T11:46:53.447Z,10.35
2018-05-31T11:49:21.256Z,11.57
2018-05-31T11:51:49.927Z,10.90
2018-05-31T11:54:17.756Z,10.48
2018-05-31T11:56:45.659Z,11.07
2018-05-31T11:59:13.468Z,12.27
2018-05-31T12:01:41.360Z,9.98
2018-05-31T12:04:09.230Z,11.35
2018-05-31T12:06:37.032Z,10.20
2018-05-31T12:09:05.650Z,10.50
2018-05-31T12:11:33.426Z,10.18
2018-05-31T12:14:01.231Z,11.05
2018-05-31T12:16:29.064Z,11.35
2018-05-31T12:18:56.903Z,10.07
2018-05-31T12:21:25.887Z,9.32
2018-05-31T12:23:53.842Z,10.38
2018-05-31T12:26:21.603Z,12.25
2018-05-31T12:28:49.481Z,10.50
2018-05-31T12:31:17.286Z,10.32
2018-05-31T12:33:45.129Z,10.65
2018-05-31T12:36:13.073Z,10.13
2018-05-31T12:38:40.844Z,12.82
2018-05-31T12:41:08.889Z,10.48
2018-05-31T12:43:37.465Z,11.73
2018-05-31T12:46:05.429Z,10.48
2018-05-31T12:48:33.954Z,9.52
2018-05-31T12:51:01.772Z,11.02
2018-05-31T12:53:29.652Z,10.00
2018-05-31T12:55:58.255Z,9.95
2018-05-31T12:58:26.286Z,9.82
2018-05-31T13:00:54.880Z,10.40
2018-05-31T13:03:23.611Z,11.48
2018-05-31T13:05:51.509Z,10.30
2018-05-31T13:08:19.198Z,10.48
2018-05-31T13:10:47.721Z,10.27
2018-05-31T13:13:15.557Z,9.85
2018-05-31T13:15:43.355Z,9.82
2018-05-31T13:18:11.169Z,9.65
2018-05-31T13:20:39.026Z,15.07
2018-05-31T13:23:07.764Z,11.43
2018-05-31T13:25:35.574Z,9.65
2018-05-31T13:28:04.113Z,10.07
2018-05-31T13:30:31.928Z,9.63
2018-05-31T13:33:00.548Z,9.65
2018-05-31T13:35:28.402Z,9.93
2018-05-31T13:37:56.223Z,10.63
2018-05-31T13:40:24.926Z,11.05
2018-05-31T13:42:52.834Z,10.23
2018-05-31T13:45:20.841Z,10.85
2018-05-31T13:47:49.510Z,10.60
2018-05-31T13:50:17.484Z,10.27
2018-05-31T13:52:45.291Z,9.95
2018-05-31T13:55:13.193Z,12.50
2018-05-31T13:57:41.022Z,11.73
2018-05-31T14:00:08.868Z,13.07
2018-05-31T14:02:37.491Z,10.10
2018-05-31T14:05:05.335Z,9.57
2018-05-31T14:07:33.269Z,10.43
2018-05-31T14:10:01.183Z,11.10
2018-05-31T14:12:29.029Z,10.48
2018-05-31T14:14:56.930Z,9.68
2018-05-31T14:17:24.783Z,9.38
2018-05-31T14:19:52.600Z,9.88
2018-05-31T14:22:21.306Z,10.20
2018-05-31T14:24:49.372Z,10.77
2018-05-31T14:27:17.216Z,10.45
2018-05-31T14:29:45.799Z,10.30
2018-05-31T14:32:14.419Z,9.80
2018-05-31T14:34:42.185Z,10.90
2018-05-31T14:37:09.939Z,9.57
2018-05-31T14:39:38.264Z,10.25
2018-05-31T14:42:06.070Z,9.38
2018-05-31T14:44:34.068Z,10.25
2018-05-31T14:47:01.818Z,10.95
2018-05-31T14:49:29.633Z,10.13
2018-05-31T14:51:57.389Z,11.18
2018-05-31T14:54:25.251Z,10.20
2018-05-31T14:56:53.828Z,9.27
2018-05-31T14:59:21.637Z,9.02
2018-05-31T15:01:49.413Z,15.38
2018-05-31T15:04:17.245Z,11.98
2018-05-31T15:06:45.902Z,9.48
2018-05-31T15:09:13.633Z,9.10
2018-05-31T15:11:41.484Z,8.90
2018-05-31T15:14:09.204Z,10.45
2018-05-31T15:16:37.075Z,9.52
2018-05-31T15:19:05.629Z,8.55
2018-05-31T15:21:33.514Z,10.15
2018-05-31T15:24:01.291Z,12.95
2018-05-31T15:26:30.010Z,10.27
2018-05-31T15:28:58.037Z,8.80
2018-05-31T15:31:25.978Z,11.38
2018-05-31T15:33:53.853Z,10.02
2018-05-31T15:36:21.765Z,8.73
2018-05-31T15:38:49.723Z,10.95
2018-05-31T15:41:17.722Z,8.85
2018-05-31T15:43:45.729Z,9.40
2018-05-31T15:46:13.467Z,8.48
2018-05-31T15:48:41.433Z,8.75
2018-05-31T15:51:09.382Z,10.55
2018-05-31T15:53:37.152Z,8.43
2018-05-31T15:56:05.041Z,9.32
2018-05-31T15:58:32.912Z,11.95
2018-05-31T16:01:05.641Z,10.55
2018-05-31T16:03:33.566Z,8.65
2018-05-31T16:06:01.481Z,9.10
2018-05-31T16:08:29.337Z,10.32
2018-05-31T16:10:57.258Z,9.27
2018-05-31T16:13:25.185Z,13.27
2018-05-31T16:15:53.049Z,10.25
2018-05-31T16:18:20.905Z,8.63
2018-05-31T16:20:48.745Z,9.85
2018-05-31T16:23:17.457Z,10.35
2018-05-31T16:25:45.363Z,8.07
2018-05-31T16:28:13.382Z,7.72
2018-05-31T16:30:41.303Z,10.27
2018-05-31T16:33:09.303Z,8.30
2018-05-31T16:35:38.031Z,7.80
2018-05-31T16:38:06.016Z,7.80
2018-05-31T16:40:33.918Z,10.85
2018-05-31T16:43:02.592Z,8.32
2018-05-31T16:45:31.278Z,7.50
2018-05-31T16:47:59.816Z,11.27
2018-05-31T16:50:27.723Z,7.28
2018-05-31T16:52:56.360Z,7.93
2018-05-31T16:55:24.292Z,6.87
2018-05-31T16:57:52.161Z,7.25
2018-05-31T17:00:20.108Z,6.78
2018-05-31T17:02:48.645Z,8.93
2018-05-31T17:05:16.510Z,8.48
2018-05-31T17:07:44.424Z,6.70
2018-05-31T17:10:13.068Z,7.43
2018-05-31T17:12:40.865Z,7.28
2018-05-31T17:15:09.603Z,9.35
2018-05-31T17:17:37.453Z,7.90
2018-05-31T17:20:05.513Z,10.50
2018-05-31T17:22:33.689Z,6.82
2018-05-31T17:25:01.680Z,7.60
2018-05-31T17:27:29.497Z,6.95
2018-05-31T17:29:58.128Z,7.90
2018-05-31T17:32:26.045Z,6.93
2018-05-31T17:34:54.609Z,6.55
2018-05-31T17:37:22.719Z,6.80
2018-05-31T17:39:50.922Z,6.80
2018-05-31T17:42:18.948Z,6.20
2018-05-31T17:44:47.642Z,6.68
2018-05-31T17:47:15.437Z,6.22
2018-05-31T17:49:43.392Z,7.87
2018-05-31T17:52:11.490Z,6.50
2018-05-31T17:54:39.239Z,6.03
2018-05-31T17:57:07.133Z,6.53
2018-05-31T17:59:35.199Z,7.47
2018-05-31T18:02:03.046Z,6.00
2018-05-31T18:04:30.828Z,6.78
2018-05-31T18:06:58.972Z,5.72
2018-05-31T18:09:26.740Z,6.15
2018-05-31T18:11:54.774Z,5.97
2018-05-31T18:14:22.697Z,6.10
2018-05-31T18:16:50.716Z,5.97
2018-05-31T18:19:18.672Z,8.30
2018-05-31T18:21:46.454Z,5.97
2018-05-31T18:24:14.655Z,6.12
2018-05-31T18:26:42.695Z,6.57
2018-05-31T18:29:10.542Z,6.32
2018-05-31T18:31:38.392Z,6.85
2018-05-31T18:34:07.224Z,6.70
2018-05-31T18:36:35.060Z,5.80
2018-05-31T18:39:03.081Z,5.50
2018-05-31T18:41:30.999Z,5.47
2018-05-31T18:43:58.888Z,6.95
2018-05-31T18:46:26.738Z,5.40
2018-05-31T18:48:54.767Z,5.85
2018-05-31T18:51:22.713Z,5.70
2018-05-31T18:53:51.456Z,5.25
2018-05-31T18:56:19.272Z,5.85
2018-05-31T18:58:47.146Z,5.20
2018-05-31T19:01:15.052Z,5.28
2018-05-31T19:03:43.033Z,5.72
2018-05-31T19:06:10.986Z,5.85
2018-05-31T19:08:38.932Z,5.30
2018-05-31T19:11:06.729Z,5.60
2018-05-31T19:13:34.530Z,5.40
2018-05-31T19:16:02.473Z,5.68
2018-05-31T19:18:30.390Z,5.37
2018-05-31T19:20:58.949Z,5.47
2018-05-31T19:23:26.863Z,5.18
2018-05-31T19:25:54.714Z,5.55
2018-05-31T19:28:22.576Z,5.68
2018-05-31T19:30:50.523Z,5.00
2018-05-31T19:33:18.510Z,5.60
2018-05-31T19:35:46.418Z,5.72
2018-05-31T19:38:14.442Z,5.37
2018-05-31T19:40:43.986Z,5.62
2018-05-31T19:43:11.757Z,5.22
2018-05-31T19:45:39.724Z,5.20
2018-05-31T19:48:07.532Z,5.30
2018-05-31T19:50:36.321Z,5.30
2018-05-31T19:53:04.949Z,5.10
2018-05-31T19:55:32.764Z,5.40
2018-05-31T19:58:01.497Z,5.15
2018-05-31T20:00:29.419Z,4.97
2018-05-31T20:02:58.034Z,5.32
2018-05-31T20:05:25.953Z,4.53
2018-05-31T20:07:53.825Z,5.00
2018-05-31T20:10:21.603Z,4.87
2018-05-31T20:12:49.415Z,5.22
2018-05-31T20:15:17.216Z,4.65
2018-05-31T20:17:45.226Z,4.95
2018-05-31T20:20:12.997Z,4.97
2018-05-31T20:22:40.810Z,4.53
2018-05-31T20:25:08.761Z,5.30
2018-05-31T20:27:37.380Z,4.62
2018-05-31T20:30:05.279Z,4.45
2018-05-31T20:32:33.164Z,4.68
2018-05-31T20:35:01.043Z,4.60
2018-05-31T20:37:28.912Z,4.53
2018-05-31T20:39:56.879Z,4.30
2018-05-31T20:42:24.718Z,4.80
2018-05-31T20:44:52.560Z,4.87
2018-05-31T20:47:20.438Z,4.82
2018-05-31T20:49:48.341Z,4.57
2018-05-31T20:52:16.272Z,4.95
2018-05-31T20:54:44.103Z,4.35
2018-05-31T20:57:12.070Z,5.03
2018-05-31T20:59:39.995Z,5.00
2018-05-31T21:02:07.810Z,5.10
2018-05-31T21:04:35.724Z,4.70
2018-05-31T21:07:03.595Z,4.40
2018-05-31T21:09:31.584Z,4.30
2018-05-31T21:12:00.138Z,5.30
2018-05-31T21:14:27.945Z,4.82
2018-05-31T21:16:55.750Z,4.40
2018-05-31T21:19:23.688Z,4.03
2018-05-31T21:21:51.521Z,4.78
2018-05-31T21:24:20.028Z,4.82
2018-05-31T21:26:47.920Z,4.50
2018-05-31T21:29:15.783Z,4.35
2018-05-31T21:31:43.722Z,4.10
2018-05-31T21:34:11.625Z,4.43
2018-05-31T21:36:39.427Z,4.10
2018-05-31T21:39:08.114Z,4.40
2018-05-31T21:41:36.883Z,4.62
2018-05-31T21:44:04.869Z,4.30
2018-05-31T21:46:34.072Z,4.25
2018-05-31T21:49:02.072Z,4.30
2018-05-31T21:51:30.904Z,4.18
2018-05-31T21:53:58.873Z,4.78
2018-05-31T21:56:26.857Z,4.05
2018-05-31T21:58:55.461Z,4.35
2018-05-31T22:01:23.406Z,4.10
2018-05-31T22:03:51.928Z,4.20
2018-05-31T22:06:19.911Z,4.28
2018-05-31T22:08:47.783Z,4.57
2018-05-31T22:11:15.729Z,3.83
2018-05-31T22:13:43.544Z,4.50
2018-05-31T22:16:11.501Z,4.05
2018-05-31T22:18:39.435Z,4.07
2018-05-31T22:21:07.362Z,4.75
2018-05-31T22:23:35.314Z,4.10
2018-05-31T22:26:04.031Z,3.92
2018-05-31T22:28:31.893Z,4.28
2018-05-31T22:30:59.693Z,3.90
2018-05-31T22:33:27.667Z,4.05
2018-05-31T22:35:55.592Z,3.75
2018-05-31T22:38:23.558Z,3.90
2018-05-31T22:40:51.363Z,4.05
2018-05-31T22:43:19.184Z,3.83
2018-05-31T22:45:47.009Z,4.68
2018-05-31T22:48:14.863Z,4.03
2018-05-31T22:50:42.860Z,3.87
2018-05-31T22:53:11.518Z,3.90
2018-05-31T22:55:39.430Z,3.80
2018-05-31T22:58:07.360Z,3.80
2018-05-31T23:00:35.358Z,3.72
2018-05-31T23:03:03.257Z,4.32
2018-05-31T23:05:30.950Z,4.55
2018-05-31T23:07:59.679Z,4.10
2018-05-31T23:10:27.722Z,3.67
2018-05-31T23:12:56.476Z,4.32
2018-05-31T23:15:24.311Z,3.62
2018-05-31T23:17:52.145Z,4.00
2018-05-31T23:20:20.116Z,4.20
2018-05-31T23:22:48.659Z,3.70
2018-05-31T23:25:16.412Z,3.65
2018-05-31T23:27:44.397Z,4.03
2018-05-31T23:30:12.279Z,3.72
2018-05-31T23:32:41.047Z,3.65
2018-05-31T23:35:08.947Z,4.10
2018-05-31T23:37:36.790Z,4.05
2018-05-31T23:40:05.435Z,3.60
2018-05-31T23:42:33.407Z,3.80
2018-05-31T23:45:01.359Z,3.50
2018-05-31T23:47:29.352Z,3.80
2018-05-31T23:49:57.287Z,3.80
2018-05-31T23:52:25.185Z,3.60
2018-05-31T23:54:53.125Z,3.80
2018-05-31T23:57:21.111Z,3.62
2018-05-31T23:59:49.099Z,3.40
